Canaan, IN (47224)

8:23 PM EDT on September 01, 2015 (GMT -0400)
Historic Madison | | Change Station
CLOSE
Current Station
Personal Weather Station
Location: Madison, IN
Elevation: 463 ft
Nearby Weather Stations

Elev 463 ft 38.74 °N, 85.39 °W | Updated 4 seconds ago

Clear
Clear
81.7 °F
Feels Like 86 °F
N
0.0
Wind Variable Wind from North
Gusts 0.0 mph

Today
High -- | Low -- °F
--% Chance of Precip.
Yesterday
High -- | Low -- °F
Precip. -- in
7:09 AM 8:11 PM
Waning Gibbous, 85% visible
Pressure 30.07 in
Visibility 8.0 miles
Clouds Few 20000 ft
Scattered Clouds 25000 ft
Heat Index 86 °F
Dew Point 71 °F
Humidity 71%
Rainfall 0.00 in
Snow Depth Not available.
UV 0 out of 12
Pollen 10.60 out of 12
Air Quality Not available.
Flu Activity Not available.
METAR KCVG 012352Z 27003KT 8SM FEW200 SCT250 27/19 A3010 RMK AO2 SLP183 CB DSNT NE T02720194 10317 20272 53001
Pressure 30.07 in
Visibility 8.0 miles
Clouds Few 20000 ft
Scattered Clouds 25000 ft
Heat Index 86 °F
Dew Point 71 °F
Humidity 71%
Rainfall 0.00 in
Snow Depth Not available.
UV 0 out of 12
Pollen 10.60 out of 12
Air Quality Not available.
Flu Activity Not available.
METAR KCVG 012352Z 27003KT 8SM FEW200 SCT250 27/19 A3010 RMK AO2 SLP183 CB DSNT NE T02720194 10317 20272 53001

10-Day Weather Forecast

×

Almanac

Astronomy

Sep. 01, 2015 Rise Set
Actual Time
Civil Twilight
Nautical Twilight
Astronomical Twilight
Moon
Length of Visible Light
Length of Day
Tomorrow will be .
, % of the Moon is Illuminated

Today's Extremes

State Highs State Lows

Community

WunderPhotos

Upload Photos

1,851,657 photos uploaded!

WunderBlogs® & News

Nearby

Air Quality

  Air Quality AQ Index Pollutant
Not available.

Snow Depth

Station Depth Elevation

Earthquake Activity

City Distance Mag. Time & Date
Minimum magnitude displayed is 2.5.

Coastal Water Temperatures

Place Temperature

Stations

Nearby Weather Stations

Station Location Temp. Windchill Dew Point Humidity Wind Precip. Elev Updated Type